sensor_id;sensor_type;location;lat;lon;timestamp;temperature;humidity
18143;DHT22;9197;50.930;3.140;2023-11-21T00:00:14;10.00;99.90
18143;DHT22;9197;50.930;3.140;2023-11-21T00:02:43;10.00;99.90
18143;DHT22;9197;50.930;3.140;2023-11-21T00:05:13;10.00;99.90
18143;DHT22;9197;50.930;3.140;2023-11-21T00:07:43;10.00;99.90
18143;DHT22;9197;50.930;3.140;2023-11-21T00:10:11;10.00;99.90
18143;DHT22;9197;50.930;3.140;2023-11-21T00:12:40;10.00;99.90
18143;DHT22;9197;50.930;3.140;2023-11-21T00:15:08;10.00;99.90
18143;DHT22;9197;50.930;3.140;2023-11-21T00:17:36;10.00;99.90
18143;DHT22;9197;50.930;3.140;2023-11-21T00:20:04;10.00;99.90
18143;DHT22;9197;50.930;3.140;2023-11-21T00:22:32;10.00;99.90
18143;DHT22;9197;50.930;3.140;2023-11-21T00:25:01;10.00;99.90
18143;DHT22;9197;50.930;3.140;2023-11-21T00:27:29;10.00;99.90
18143;DHT22;9197;50.930;3.140;2023-11-21T00:29:56;10.00;99.90
18143;DHT22;9197;50.930;3.140;2023-11-21T00:32:23;9.90;99.90
18143;DHT22;9197;50.930;3.140;2023-11-21T00:34:50;9.90;99.90
18143;DHT22;9197;50.930;3.140;2023-11-21T00:37:17;9.90;99.90
18143;DHT22;9197;50.930;3.140;2023-11-21T00:39:44;9.90;99.90
18143;DHT22;9197;50.930;3.140;2023-11-21T00:42:13;9.90;99.90
18143;DHT22;9197;50.930;3.140;2023-11-21T00:44:40;9.90;99.90
18143;DHT22;9197;50.930;3.140;2023-11-21T00:47:07;9.90;99.90
18143;DHT22;9197;50.930;3.140;2023-11-21T00:49:34;9.90;99.90
18143;DHT22;9197;50.930;3.140;2023-11-21T00:52:01;9.90;99.90
18143;DHT22;9197;50.930;3.140;2023-11-21T00:54:28;9.80;99.90
18143;DHT22;9197;50.930;3.140;2023-11-21T00:56:56;9.80;99.90
18143;DHT22;9197;50.930;3.140;2023-11-21T00:59:24;9.80;99.90
18143;DHT22;9197;50.930;3.140;2023-11-21T01:01:52;9.80;99.90
18143;DHT22;9197;50.930;3.140;2023-11-21T01:04:19;9.70;99.90
18143;DHT22;9197;50.930;3.140;2023-11-21T01:06:46;9.70;99.90
18143;DHT22;9197;50.930;3.140;2023-11-21T01:09:14;9.80;99.90
18143;DHT22;9197;50.930;3.140;2023-11-21T01:11:42;9.80;99.90
18143;DHT22;9197;50.930;3.140;2023-11-21T01:14:09;9.80;99.90
18143;DHT22;9197;50.930;3.140;2023-11-21T01:16:38;9.80;99.90
18143;DHT22;9197;50.930;3.140;2023-11-21T01:19:05;9.80;99.90
18143;DHT22;9197;50.930;3.140;2023-11-21T01:21:32;9.80;99.90
18143;DHT22;9197;50.930;3.140;2023-11-21T01:23:59;9.90;99.90
18143;DHT22;9197;50.930;3.140;2023-11-21T01:26:27;9.90;99.90
18143;DHT22;9197;50.930;3.140;2023-11-21T01:28:54;9.90;99.90
18143;DHT22;9197;50.930;3.140;2023-11-21T01:31:21;10.00;99.90
18143;DHT22;9197;50.930;3.140;2023-11-21T01:33:49;9.90;99.90
18143;DHT22;9197;50.930;3.140;2023-11-21T01:36:16;10.00;99.90
18143;DHT22;9197;50.930;3.140;2023-11-21T01:38:43;10.00;99.90
18143;DHT22;9197;50.930;3.140;2023-11-21T01:41:11;10.00;99.90
18143;DHT22;9197;50.930;3.140;2023-11-21T01:43:38;10.00;99.90
18143;DHT22;9197;50.930;3.140;2023-11-21T01:46:06;10.10;99.90
18143;DHT22;9197;50.930;3.140;2023-11-21T01:48:33;10.10;99.90
18143;DHT22;9197;50.930;3.140;2023-11-21T01:51:02;10.20;99.90
18143;DHT22;9197;50.930;3.140;2023-11-21T01:53:30;10.20;99.90
18143;DHT22;9197;50.930;3.140;2023-11-21T01:55:57;10.20;99.90
18143;DHT22;9197;50.930;3.140;2023-11-21T01:58:25;10.20;99.90
18143;DHT22;9197;50.930;3.140;2023-11-21T02:00:52;10.20;99.90
18143;DHT22;9197;50.930;3.140;2023-11-21T02:03:20;10.30;99.90
18143;DHT22;9197;50.930;3.140;2023-11-21T02:23:08;10.70;99.90
18143;DHT22;9197;50.930;3.140;2023-11-21T03:27:19;11.00;99.90
18143;DHT22;9197;50.930;3.140;2023-11-21T03:29:46;10.90;99.90
18143;DHT22;9197;50.930;3.140;2023-11-21T03:32:15;10.90;99.90
18143;DHT22;9197;50.930;3.140;2023-11-21T03:34:54;10.80;99.90
18143;DHT22;9197;50.930;3.140;2023-11-21T03:37:22;10.80;99.90
18143;DHT22;9197;50.930;3.140;2023-11-21T03:39:49;10.90;99.90
18143;DHT22;9197;50.930;3.140;2023-11-21T03:42:16;10.90;99.90
18143;DHT22;9197;50.930;3.140;2023-11-21T03:44:43;10.80;99.90
18143;DHT22;9197;50.930;3.140;2023-11-21T03:47:11;10.90;99.90
18143;DHT22;9197;50.930;3.140;2023-11-21T03:49:39;10.90;99.90
18143;DHT22;9197;50.930;3.140;2023-11-21T03:52:06;10.90;99.90
18143;DHT22;9197;50.930;3.140;2023-11-21T03:54:34;10.90;99.90
18143;DHT22;9197;50.930;3.140;2023-11-21T03:57:02;10.90;99.90
18143;DHT22;9197;50.930;3.140;2023-11-21T03:59:29;10.90;99.90
18143;DHT22;9197;50.930;3.140;2023-11-21T04:01:56;10.90;99.90
18143;DHT22;9197;50.930;3.140;2023-11-21T04:04:25;10.90;99.90
18143;DHT22;9197;50.930;3.140;2023-11-21T04:06:54;10.90;99.90
18143;DHT22;9197;50.930;3.140;2023-11-21T04:09:22;10.90;99.90
18143;DHT22;9197;50.930;3.140;2023-11-21T04:11:50;10.90;99.90
18143;DHT22;9197;50.930;3.140;2023-11-21T04:14:18;11.00;99.90
18143;DHT22;9197;50.930;3.140;2023-11-21T04:16:45;11.00;99.90
18143;DHT22;9197;50.930;3.140;2023-11-21T04:19:12;11.00;99.90
18143;DHT22;9197;50.930;3.140;2023-11-21T04:21:40;11.00;99.90
18143;DHT22;9197;50.930;3.140;2023-11-21T04:24:09;11.00;99.90
18143;DHT22;9197;50.930;3.140;2023-11-21T04:26:36;11.10;99.90
18143;DHT22;9197;50.930;3.140;2023-11-21T04:29:03;11.10;99.90
18143;DHT22;9197;50.930;3.140;2023-11-21T04:31:31;11.10;99.90
18143;DHT22;9197;50.930;3.140;2023-11-21T04:33:58;11.10;99.90
18143;DHT22;9197;50.930;3.140;2023-11-21T04:36:25;11.10;99.90
18143;DHT22;9197;50.930;3.140;2023-11-21T04:38:53;11.10;99.90
18143;DHT22;9197;50.930;3.140;2023-11-21T04:41:21;11.10;99.90
18143;DHT22;9197;50.930;3.140;2023-11-21T04:43:48;11.20;99.90
18143;DHT22;9197;50.930;3.140;2023-11-21T04:46:15;11.20;99.90
18143;DHT22;9197;50.930;3.140;2023-11-21T04:48:43;11.20;99.90
18143;DHT22;9197;50.930;3.140;2023-11-21T04:51:10;11.20;99.90
18143;DHT22;9197;50.930;3.140;2023-11-21T04:53:38;11.30;99.90
18143;DHT22;9197;50.930;3.140;2023-11-21T04:56:06;11.30;99.90
18143;DHT22;9197;50.930;3.140;2023-11-21T04:58:34;11.40;99.90
18143;DHT22;9197;50.930;3.140;2023-11-21T05:01:02;11.30;99.90
18143;DHT22;9197;50.930;3.140;2023-11-21T05:03:29;11.30;99.90
18143;DHT22;9197;50.930;3.140;2023-11-21T05:05:56;11.40;99.90
18143;DHT22;9197;50.930;3.140;2023-11-21T05:08:25;11.40;99.90
18143;DHT22;9197;50.930;3.140;2023-11-21T05:10:53;11.50;99.90
18143;DHT22;9197;50.930;3.140;2023-11-21T05:13:20;11.50;99.90
18143;DHT22;9197;50.930;3.140;2023-11-21T05:15:50;11.60;99.90
18143;DHT22;9197;50.930;3.140;2023-11-21T05:18:17;11.60;99.90
18143;DHT22;9197;50.930;3.140;2023-11-21T05:20:44;11.60;99.90
18143;DHT22;9197;50.930;3.140;2023-11-21T05:23:11;11.60;99.90
18143;DHT22;9197;50.930;3.140;2023-11-21T05:25:39;11.70;99.90
18143;DHT22;9197;50.930;3.140;2023-11-21T05:28:07;11.70;99.90
18143;DHT22;9197;50.930;3.140;2023-11-21T05:30:34;11.70;99.90
18143;DHT22;9197;50.930;3.140;2023-11-21T05:33:02;11.70;99.90
18143;DHT22;9197;50.930;3.140;2023-11-21T05:35:29;11.70;99.90
18143;DHT22;9197;50.930;3.140;2023-11-21T05:37:56;11.70;99.90
18143;DHT22;9197;50.930;3.140;2023-11-21T05:40:23;11.80;99.90
18143;DHT22;9197;50.930;3.140;2023-11-21T05:42:55;11.80;99.90
18143;DHT22;9197;50.930;3.140;2023-11-21T05:45:22;11.90;99.90
18143;DHT22;9197;50.930;3.140;2023-11-21T05:47:49;11.90;99.90
18143;DHT22;9197;50.930;3.140;2023-11-21T05:50:17;11.90;99.90
18143;DHT22;9197;50.930;3.140;2023-11-21T05:52:46;11.80;99.90
18143;DHT22;9197;50.930;3.140;2023-11-21T05:55:13;11.80;99.90
18143;DHT22;9197;50.930;3.140;2023-11-21T05:57:42;11.80;99.90
18143;DHT22;9197;50.930;3.140;2023-11-21T06:00:11;11.80;99.90
18143;DHT22;9197;50.930;3.140;2023-11-21T06:02:44;11.80;99.90
18143;DHT22;9197;50.930;3.140;2023-11-21T06:05:11;11.80;99.90
18143;DHT22;9197;50.930;3.140;2023-11-21T06:07:40;11.80;99.90
18143;DHT22;9197;50.930;3.140;2023-11-21T06:10:08;11.80;99.90
18143;DHT22;9197;50.930;3.140;2023-11-21T06:12:36;11.70;99.90
18143;DHT22;9197;50.930;3.140;2023-11-21T06:15:04;11.80;99.90
18143;DHT22;9197;50.930;3.140;2023-11-21T06:17:34;11.70;99.90
18143;DHT22;9197;50.930;3.140;2023-11-21T06:20:02;11.70;99.90
18143;DHT22;9197;50.930;3.140;2023-11-21T06:22:34;11.60;99.90
18143;DHT22;9197;50.930;3.140;2023-11-21T06:25:03;11.60;99.90
18143;DHT22;9197;50.930;3.140;2023-11-21T06:27:32;11.50;99.90
18143;DHT22;9197;50.930;3.140;2023-11-21T06:29:59;11.50;99.90
18143;DHT22;9197;50.930;3.140;2023-11-21T06:32:27;11.40;99.90
18143;DHT22;9197;50.930;3.140;2023-11-21T06:34:55;11.50;99.90
18143;DHT22;9197;50.930;3.140;2023-11-21T06:37:25;11.40;99.90
18143;DHT22;9197;50.930;3.140;2023-11-21T06:39:52;11.40;99.90
18143;DHT22;9197;50.930;3.140;2023-11-21T06:42:20;11.30;99.90
18143;DHT22;9197;50.930;3.140;2023-11-21T06:44:48;11.30;99.90
18143;DHT22;9197;50.930;3.140;2023-11-21T06:54:42;11.40;99.90
18143;DHT22;9197;50.930;3.140;2023-11-21T06:57:09;11.40;99.90
18143;DHT22;9197;50.930;3.140;2023-11-21T06:59:38;11.40;99.90
18143;DHT22;9197;50.930;3.140;2023-11-21T07:02:05;11.40;99.90
18143;DHT22;9197;50.930;3.140;2023-11-21T07:04:33;11.40;99.90
18143;DHT22;9197;50.930;3.140;2023-11-21T07:07:00;11.40;99.90
18143;DHT22;9197;50.930;3.140;2023-11-21T07:09:27;11.30;99.90
18143;DHT22;9197;50.930;3.140;2023-11-21T07:11:55;11.40;99.90
18143;DHT22;9197;50.930;3.140;2023-11-21T07:14:23;11.40;99.90
18143;DHT22;9197;50.930;3.140;2023-11-21T07:16:51;11.40;99.90
18143;DHT22;9197;50.930;3.140;2023-11-21T07:19:19;11.40;99.90
18143;DHT22;9197;50.930;3.140;2023-11-21T07:21:47;11.40;99.90
18143;DHT22;9197;50.930;3.140;2023-11-21T07:24:16;11.30;99.90
18143;DHT22;9197;50.930;3.140;2023-11-21T07:26:43;11.30;99.90
18143;DHT22;9197;50.930;3.140;2023-11-21T07:29:10;11.30;99.90
18143;DHT22;9197;50.930;3.140;2023-11-21T07:31:39;11.30;99.90
18143;DHT22;9197;50.930;3.140;2023-11-21T08:03:39;11.60;99.90
18143;DHT22;9197;50.930;3.140;2023-11-21T08:06:07;11.60;99.90
18143;DHT22;9197;50.930;3.140;2023-11-21T08:08:36;11.70;99.90
18143;DHT22;9197;50.930;3.140;2023-11-21T08:11:03;11.70;99.90
18143;DHT22;9197;50.930;3.140;2023-11-21T08:13:30;11.70;99.90
18143;DHT22;9197;50.930;3.140;2023-11-21T08:15:58;11.60;99.90
18143;DHT22;9197;50.930;3.140;2023-11-21T08:18:28;11.60;99.90
18143;DHT22;9197;50.930;3.140;2023-11-21T08:20:56;11.60;99.90
18143;DHT22;9197;50.930;3.140;2023-11-21T08:30:49;11.50;99.90
18143;DHT22;9197;50.930;3.140;2023-11-21T08:33:16;11.50;99.90
18143;DHT22;9197;50.930;3.140;2023-11-21T08:35:43;11.50;99.90
18143;DHT22;9197;50.930;3.140;2023-11-21T08:38:11;11.50;99.90
18143;DHT22;9197;50.930;3.140;2023-11-21T08:40:38;11.40;99.90
18143;DHT22;9197;50.930;3.140;2023-11-21T08:43:06;11.50;99.90
18143;DHT22;9197;50.930;3.140;2023-11-21T08:45:34;11.60;99.90
18143;DHT22;9197;50.930;3.140;2023-11-21T08:48:01;11.70;99.90
18143;DHT22;9197;50.930;3.140;2023-11-21T08:50:28;11.80;99.90
18143;DHT22;9197;50.930;3.140;2023-11-21T08:52:55;11.90;99.90
18143;DHT22;9197;50.930;3.140;2023-11-21T08:55:22;12.10;99.90
18143;DHT22;9197;50.930;3.140;2023-11-21T08:57:49;12.60;99.90
18143;DHT22;9197;50.930;3.140;2023-11-21T09:00:18;13.60;99.90
18143;DHT22;9197;50.930;3.140;2023-11-21T09:02:45;14.10;99.90
18143;DHT22;9197;50.930;3.140;2023-11-21T09:05:13;14.00;99.90
18143;DHT22;9197;50.930;3.140;2023-11-21T09:07:41;13.90;99.90
18143;DHT22;9197;50.930;3.140;2023-11-21T09:10:09;14.30;99.90
18143;DHT22;9197;50.930;3.140;2023-11-21T09:12:37;14.60;99.90
18143;DHT22;9197;50.930;3.140;2023-11-21T09:15:05;14.60;99.90
18143;DHT22;9197;50.930;3.140;2023-11-21T09:17:34;14.40;99.90
18143;DHT22;9197;50.930;3.140;2023-11-21T09:20:02;14.30;99.90
18143;DHT22;9197;50.930;3.140;2023-11-21T09:22:31;14.30;99.90
18143;DHT22;9197;50.930;3.140;2023-11-21T09:24:58;14.30;99.90
18143;DHT22;9197;50.930;3.140;2023-11-21T09:27:25;14.30;99.90
18143;DHT22;9197;50.930;3.140;2023-11-21T09:29:53;14.30;99.90
18143;DHT22;9197;50.930;3.140;2023-11-21T09:32:21;14.30;99.90
18143;DHT22;9197;50.930;3.140;2023-11-21T09:34:49;14.40;99.90
18143;DHT22;9197;50.930;3.140;2023-11-21T09:37:16;14.60;99.90
18143;DHT22;9197;50.930;3.140;2023-11-21T09:39:45;14.80;99.90
18143;DHT22;9197;50.930;3.140;2023-11-21T09:42:17;14.60;99.90
18143;DHT22;9197;50.930;3.140;2023-11-21T09:44:51;14.40;99.90
18143;DHT22;9197;50.930;3.140;2023-11-21T09:47:22;14.30;99.90
18143;DHT22;9197;50.930;3.140;2023-11-21T09:49:54;14.10;99.90
18143;DHT22;9197;50.930;3.140;2023-11-21T09:52:24;13.90;99.90
18143;DHT22;9197;50.930;3.140;2023-11-21T09:54:53;13.80;99.90
18143;DHT22;9197;50.930;3.140;2023-11-21T09:57:20;13.70;99.90
18143;DHT22;9197;50.930;3.140;2023-11-21T09:59:51;13.60;99.90
18143;DHT22;9197;50.930;3.140;2023-11-21T10:02:22;13.50;99.90
18143;DHT22;9197;50.930;3.140;2023-11-21T10:04:53;13.40;99.90
18143;DHT22;9197;50.930;3.140;2023-11-21T10:07:21;13.30;99.90
18143;DHT22;9197;50.930;3.140;2023-11-21T10:09:48;13.20;99.90
18143;DHT22;9197;50.930;3.140;2023-11-21T10:12:17;13.00;99.90
18143;DHT22;9197;50.930;3.140;2023-11-21T10:14:48;12.90;99.90
18143;DHT22;9197;50.930;3.140;2023-11-21T10:17:15;12.80;99.90
18143;DHT22;9197;50.930;3.140;2023-11-21T10:19:47;12.70;99.90
18143;DHT22;9197;50.930;3.140;2023-11-21T10:22:15;12.60;99.90
18143;DHT22;9197;50.930;3.140;2023-11-21T10:24:43;12.50;99.90
18143;DHT22;9197;50.930;3.140;2023-11-21T10:27:10;12.30;99.90
18143;DHT22;9197;50.930;3.140;2023-11-21T10:29:39;12.30;99.90
18143;DHT22;9197;50.930;3.140;2023-11-21T10:32:07;12.30;99.90
18143;DHT22;9197;50.930;3.140;2023-11-21T10:34:35;12.30;99.90
18143;DHT22;9197;50.930;3.140;2023-11-21T10:37:11;12.30;99.90
18143;DHT22;9197;50.930;3.140;2023-11-21T10:39:40;12.30;99.90
18143;DHT22;9197;50.930;3.140;2023-11-21T10:42:09;12.30;99.90
18143;DHT22;9197;50.930;3.140;2023-11-21T10:44:36;12.40;99.90
18143;DHT22;9197;50.930;3.140;2023-11-21T10:47:03;12.50;99.90
18143;DHT22;9197;50.930;3.140;2023-11-21T10:49:31;12.60;99.90
18143;DHT22;9197;50.930;3.140;2023-11-21T10:51:58;12.60;99.90
18143;DHT22;9197;50.930;3.140;2023-11-21T10:54:25;12.70;99.90
18143;DHT22;9197;50.930;3.140;2023-11-21T10:56:57;12.70;99.90
18143;DHT22;9197;50.930;3.140;2023-11-21T10:59:27;12.80;99.90
18143;DHT22;9197;50.930;3.140;2023-11-21T11:01:57;12.50;99.90
18143;DHT22;9197;50.930;3.140;2023-11-21T11:04:27;12.90;99.90
18143;DHT22;9197;50.930;3.140;2023-11-21T11:06:55;13.10;99.90
18143;DHT22;9197;50.930;3.140;2023-11-21T11:09:24;13.20;99.90
18143;DHT22;9197;50.930;3.140;2023-11-21T11:11:51;13.20;99.90
18143;DHT22;9197;50.930;3.140;2023-11-21T11:14:21;13.20;99.90
18143;DHT22;9197;50.930;3.140;2023-11-21T11:16:53;13.30;99.90
18143;DHT22;9197;50.930;3.140;2023-11-21T11:19:21;13.40;99.90
18143;DHT22;9197;50.930;3.140;2023-11-21T11:21:53;13.30;99.90
18143;DHT22;9197;50.930;3.140;2023-11-21T11:24:44;13.20;99.90
18143;DHT22;9197;50.930;3.140;2023-11-21T11:27:22;13.20;99.90
18143;DHT22;9197;50.930;3.140;2023-11-21T11:30:00;13.10;99.90
18143;DHT22;9197;50.930;3.140;2023-11-21T11:32:43;13.00;99.90
18143;DHT22;9197;50.930;3.140;2023-11-21T11:35:19;12.90;99.90
18143;DHT22;9197;50.930;3.140;2023-11-21T11:37:48;12.80;99.90
18143;DHT22;9197;50.930;3.140;2023-11-21T11:40:16;12.70;99.90
18143;DHT22;9197;50.930;3.140;2023-11-21T11:42:56;12.80;99.90
18143;DHT22;9197;50.930;3.140;2023-11-21T11:45:32;12.80;99.90
18143;DHT22;9197;50.930;3.140;2023-11-21T11:48:00;12.80;99.90
18143;DHT22;9197;50.930;3.140;2023-11-21T11:50:29;12.80;99.90
18143;DHT22;9197;50.930;3.140;2023-11-21T11:53:14;12.80;99.90
18143;DHT22;9197;50.930;3.140;2023-11-21T11:55:41;12.90;99.90
18143;DHT22;9197;50.930;3.140;2023-11-21T11:58:08;12.90;99.90
18143;DHT22;9197;50.930;3.140;2023-11-21T12:00:37;13.00;99.90
18143;DHT22;9197;50.930;3.140;2023-11-21T12:03:06;13.20;99.90
18143;DHT22;9197;50.930;3.140;2023-11-21T12:05:34;13.30;99.90
18143;DHT22;9197;50.930;3.140;2023-11-21T12:08:05;13.20;99.90
18143;DHT22;9197;50.930;3.140;2023-11-21T12:10:33;13.10;99.90
18143;DHT22;9197;50.930;3.140;2023-11-21T12:13:02;13.10;99.90
18143;DHT22;9197;50.930;3.140;2023-11-21T12:15:31;13.00;99.90
18143;DHT22;9197;50.930;3.140;2023-11-21T12:17:59;12.90;99.90
18143;DHT22;9197;50.930;3.140;2023-11-21T12:20:27;12.90;99.90
18143;DHT22;9197;50.930;3.140;2023-11-21T12:22:56;12.80;99.90
18143;DHT22;9197;50.930;3.140;2023-11-21T12:25:26;12.70;99.90
18143;DHT22;9197;50.930;3.140;2023-11-21T12:27:55;12.60;99.90
18143;DHT22;9197;50.930;3.140;2023-11-21T12:30:24;12.50;99.90
18143;DHT22;9197;50.930;3.140;2023-11-21T12:32:54;12.70;99.90
18143;DHT22;9197;50.930;3.140;2023-11-21T12:35:26;12.90;99.90
18143;DHT22;9197;50.930;3.140;2023-11-21T12:37:54;12.90;99.90
18143;DHT22;9197;50.930;3.140;2023-11-21T12:40:23;12.80;99.90
18143;DHT22;9197;50.930;3.140;2023-11-21T12:42:52;12.80;99.90
18143;DHT22;9197;50.930;3.140;2023-11-21T12:45:20;12.80;99.90
18143;DHT22;9197;50.930;3.140;2023-11-21T12:47:49;12.80;99.90
18143;DHT22;9197;50.930;3.140;2023-11-21T12:50:19;12.80;99.90
18143;DHT22;9197;50.930;3.140;2023-11-21T12:52:51;12.70;99.90
18143;DHT22;9197;50.930;3.140;2023-11-21T12:55:20;12.70;99.90
18143;DHT22;9197;50.930;3.140;2023-11-21T12:57:49;12.70;99.90
18143;DHT22;9197;50.930;3.140;2023-11-21T13:00:18;12.70;99.90
18143;DHT22;9197;50.930;3.140;2023-11-21T13:02:53;12.70;99.90
18143;DHT22;9197;50.930;3.140;2023-11-21T13:05:29;12.80;99.90
18143;DHT22;9197;50.930;3.140;2023-11-21T13:07:59;12.80;99.90
18143;DHT22;9197;50.930;3.140;2023-11-21T13:10:29;12.90;99.90
18143;DHT22;9197;50.930;3.140;2023-11-21T13:12:57;12.80;99.90
18143;DHT22;9197;50.930;3.140;2023-11-21T13:15:26;12.80;99.90
18143;DHT22;9197;50.930;3.140;2023-11-21T13:17:54;12.90;99.90
18143;DHT22;9197;50.930;3.140;2023-11-21T13:20:23;12.90;99.90
18143;DHT22;9197;50.930;3.140;2023-11-21T13:22:51;12.80;99.90
18143;DHT22;9197;50.930;3.140;2023-11-21T13:25:22;12.80;99.90
18143;DHT22;9197;50.930;3.140;2023-11-21T13:27:49;12.70;99.90
18143;DHT22;9197;50.930;3.140;2023-11-21T13:30:16;12.60;99.90
18143;DHT22;9197;50.930;3.140;2023-11-21T13:32:44;12.60;99.90
18143;DHT22;9197;50.930;3.140;2023-11-21T13:35:13;12.60;99.90
18143;DHT22;9197;50.930;3.140;2023-11-21T13:37:50;12.60;99.90
18143;DHT22;9197;50.930;3.140;2023-11-21T13:40:23;12.70;99.90
18143;DHT22;9197;50.930;3.140;2023-11-21T13:42:54;12.60;99.90
18143;DHT22;9197;50.930;3.140;2023-11-21T13:45:23;12.60;99.90
18143;DHT22;9197;50.930;3.140;2023-11-21T13:47:52;12.40;99.90
18143;DHT22;9197;50.930;3.140;2023-11-21T13:52:58;12.40;99.90
18143;DHT22;9197;50.930;3.140;2023-11-21T13:55:30;12.50;99.90
18143;DHT22;9197;50.930;3.140;2023-11-21T13:57:57;12.50;99.90
18143;DHT22;9197;50.930;3.140;2023-11-21T14:00:24;12.50;99.90
18143;DHT22;9197;50.930;3.140;2023-11-21T14:03:10;12.60;99.90
18143;DHT22;9197;50.930;3.140;2023-11-21T14:05:44;12.50;99.90
18143;DHT22;9197;50.930;3.140;2023-11-21T14:08:13;12.40;99.90
18143;DHT22;9197;50.930;3.140;2023-11-21T14:10:43;12.30;99.90
18143;DHT22;9197;50.930;3.140;2023-11-21T14:13:15;12.20;99.90
18143;DHT22;9197;50.930;3.140;2023-11-21T14:15:43;12.10;99.90
18143;DHT22;9197;50.930;3.140;2023-11-21T14:18:11;12.10;99.90
18143;DHT22;9197;50.930;3.140;2023-11-21T14:20:43;12.00;99.90
18143;DHT22;9197;50.930;3.140;2023-11-21T14:23:10;12.00;99.90
18143;DHT22;9197;50.930;3.140;2023-11-21T14:25:38;12.00;99.90
18143;DHT22;9197;50.930;3.140;2023-11-21T14:28:09;12.00;99.90
18143;DHT22;9197;50.930;3.140;2023-11-21T14:30:37;12.00;99.90
18143;DHT22;9197;50.930;3.140;2023-11-21T14:33:05;11.90;99.90
18143;DHT22;9197;50.930;3.140;2023-11-21T14:35:34;11.90;99.90
18143;DHT22;9197;50.930;3.140;2023-11-21T14:38:01;11.90;99.90
18143;DHT22;9197;50.930;3.140;2023-11-21T14:40:30;11.90;99.90
18143;DHT22;9197;50.930;3.140;2023-11-21T14:42:59;11.90;99.90
18143;DHT22;9197;50.930;3.140;2023-11-21T14:45:28;11.80;99.90
18143;DHT22;9197;50.930;3.140;2023-11-21T14:47:55;11.80;99.90
18143;DHT22;9197;50.930;3.140;2023-11-21T14:50:32;11.80;99.90
18143;DHT22;9197;50.930;3.140;2023-11-21T14:53:15;11.70;99.90
18143;DHT22;9197;50.930;3.140;2023-11-21T14:55:41;11.70;99.90
18143;DHT22;9197;50.930;3.140;2023-11-21T14:58:22;11.60;99.90
18143;DHT22;9197;50.930;3.140;2023-11-21T15:00:56;11.50;99.90
18143;DHT22;9197;50.930;3.140;2023-11-21T15:03:25;11.50;99.90
18143;DHT22;9197;50.930;3.140;2023-11-21T15:06:09;11.40;99.90
18143;DHT22;9197;50.930;3.140;2023-11-21T15:08:50;11.40;99.90
18143;DHT22;9197;50.930;3.140;2023-11-21T15:11:36;11.40;99.90
18143;DHT22;9197;50.930;3.140;2023-11-21T15:14:04;11.30;99.90
18143;DHT22;9197;50.930;3.140;2023-11-21T15:16:36;11.30;99.90
18143;DHT22;9197;50.930;3.140;2023-11-21T15:19:05;11.20;99.90
18143;DHT22;9197;50.930;3.140;2023-11-21T15:21:32;11.20;99.90
18143;DHT22;9197;50.930;3.140;2023-11-21T15:24:00;11.20;99.90
18143;DHT22;9197;50.930;3.140;2023-11-21T15:26:27;11.10;99.90
18143;DHT22;9197;50.930;3.140;2023-11-21T15:28:54;11.00;99.90
18143;DHT22;9197;50.930;3.140;2023-11-21T15:31:21;11.00;99.90
18143;DHT22;9197;50.930;3.140;2023-11-21T15:33:52;11.00;99.90
18143;DHT22;9197;50.930;3.140;2023-11-21T15:36:20;10.90;99.90
18143;DHT22;9197;50.930;3.140;2023-11-21T15:38:47;10.90;99.90
18143;DHT22;9197;50.930;3.140;2023-11-21T15:41:14;10.90;99.90
18143;DHT22;9197;50.930;3.140;2023-11-21T15:43:41;10.80;99.90
18143;DHT22;9197;50.930;3.140;2023-11-21T15:46:08;10.80;99.90
18143;DHT22;9197;50.930;3.140;2023-11-21T15:48:35;10.80;99.90
18143;DHT22;9197;50.930;3.140;2023-11-21T15:51:06;10.70;99.90
18143;DHT22;9197;50.930;3.140;2023-11-21T15:53:36;10.70;99.90
18143;DHT22;9197;50.930;3.140;2023-11-21T15:56:04;10.60;99.90
18143;DHT22;9197;50.930;3.140;2023-11-21T15:58:36;10.60;99.90
18143;DHT22;9197;50.930;3.140;2023-11-21T16:01:03;10.50;99.90
18143;DHT22;9197;50.930;3.140;2023-11-21T16:03:30;10.50;99.90
18143;DHT22;9197;50.930;3.140;2023-11-21T16:05:59;10.50;99.90
18143;DHT22;9197;50.930;3.140;2023-11-21T16:08:27;10.50;99.90
18143;DHT22;9197;50.930;3.140;2023-11-21T16:10:54;10.40;99.90
18143;DHT22;9197;50.930;3.140;2023-11-21T16:13:21;10.40;99.90
18143;DHT22;9197;50.930;3.140;2023-11-21T16:15:48;10.40;99.90
18143;DHT22;9197;50.930;3.140;2023-11-21T16:18:16;10.30;99.90
18143;DHT22;9197;50.930;3.140;2023-11-21T16:20:44;10.30;99.90
18143;DHT22;9197;50.930;3.140;2023-11-21T16:23:11;10.20;99.90
18143;DHT22;9197;50.930;3.140;2023-11-21T16:25:39;10.20;99.90
18143;DHT22;9197;50.930;3.140;2023-11-21T16:28:07;10.20;99.90
18143;DHT22;9197;50.930;3.140;2023-11-21T16:30:34;10.20;99.90
18143;DHT22;9197;50.930;3.140;2023-11-21T16:33:01;10.10;99.90
18143;DHT22;9197;50.930;3.140;2023-11-21T16:35:29;10.10;99.90
18143;DHT22;9197;50.930;3.140;2023-11-21T16:37:57;10.10;99.90
18143;DHT22;9197;50.930;3.140;2023-11-21T16:40:24;10.00;99.90
18143;DHT22;9197;50.930;3.140;2023-11-21T16:42:52;10.10;99.90
18143;DHT22;9197;50.930;3.140;2023-11-21T16:45:19;9.90;99.90
18143;DHT22;9197;50.930;3.140;2023-11-21T16:47:46;9.90;99.90
18143;DHT22;9197;50.930;3.140;2023-11-21T16:50:13;9.80;99.90
18143;DHT22;9197;50.930;3.140;2023-11-21T16:52:41;9.80;99.90
18143;DHT22;9197;50.930;3.140;2023-11-21T16:55:09;9.80;99.90
18143;DHT22;9197;50.930;3.140;2023-11-21T16:57:37;9.90;99.90
18143;DHT22;9197;50.930;3.140;2023-11-21T17:00:06;9.90;99.90
18143;DHT22;9197;50.930;3.140;2023-11-21T17:02:37;9.90;99.90
18143;DHT22;9197;50.930;3.140;2023-11-21T17:05:05;10.00;99.90
18143;DHT22;9197;50.930;3.140;2023-11-21T17:07:32;10.00;99.90
18143;DHT22;9197;50.930;3.140;2023-11-21T17:09:59;9.90;99.90
18143;DHT22;9197;50.930;3.140;2023-11-21T17:12:26;9.90;99.90
18143;DHT22;9197;50.930;3.140;2023-11-21T17:14:53;9.90;99.90
18143;DHT22;9197;50.930;3.140;2023-11-21T17:29:39;9.90;99.90
18143;DHT22;9197;50.930;3.140;2023-11-21T17:32:06;9.90;99.90
18143;DHT22;9197;50.930;3.140;2023-11-21T17:34:36;9.90;99.90
18143;DHT22;9197;50.930;3.140;2023-11-21T17:37:03;9.80;99.90
18143;DHT22;9197;50.930;3.140;2023-11-21T17:39:30;9.90;99.90
18143;DHT22;9197;50.930;3.140;2023-11-21T17:41:57;9.90;99.90
18143;DHT22;9197;50.930;3.140;2023-11-21T17:44:25;9.90;99.90
18143;DHT22;9197;50.930;3.140;2023-11-21T17:46:52;9.90;99.90
18143;DHT22;9197;50.930;3.140;2023-11-21T17:49:19;9.90;99.90
18143;DHT22;9197;50.930;3.140;2023-11-21T17:51:47;9.90;99.90
18143;DHT22;9197;50.930;3.140;2023-11-21T17:54:14;10.00;99.90
18143;DHT22;9197;50.930;3.140;2023-11-21T17:56:41;10.00;99.90
18143;DHT22;9197;50.930;3.140;2023-11-21T17:59:08;10.00;99.90
18143;DHT22;9197;50.930;3.140;2023-11-21T18:01:36;10.00;99.90
18143;DHT22;9197;50.930;3.140;2023-11-21T18:04:04;10.00;99.90
18143;DHT22;9197;50.930;3.140;2023-11-21T18:06:32;9.90;99.90
18143;DHT22;9197;50.930;3.140;2023-11-21T18:09:01;9.90;99.90
18143;DHT22;9197;50.930;3.140;2023-11-21T18:11:29;9.90;99.90
18143;DHT22;9197;50.930;3.140;2023-11-21T18:13:56;9.90;99.90